sensor_id;sensor_type;location;lat;lon;timestamp;P1;durP1;ratioP1;P2;durP2;ratioP2
21315;SDS011;10817;55.820;13.030;2022-10-03T00:00:34;20.52;;;3.35;;
21315;SDS011;10817;55.820;13.030;2022-10-03T00:06:03;25.95;;;3.35;;
21315;SDS011;10817;55.820;13.030;2022-10-03T00:08:42;29.50;;;3.92;;
21315;SDS011;10817;55.820;13.030;2022-10-03T00:11:31;31.10;;;4.13;;
21315;SDS011;10817;55.820;13.030;2022-10-03T00:14:09;24.25;;;3.88;;
21315;SDS011;10817;55.820;13.030;2022-10-03T00:16:44;22.75;;;4.05;;
21315;SDS011;10817;55.820;13.030;2022-10-03T00:19:22;20.15;;;3.03;;
21315;SDS011;10817;55.820;13.030;2022-10-03T00:22:06;29.77;;;3.88;;
21315;SDS011;10817;55.820;13.030;2022-10-03T00:24:46;26.10;;;3.70;;
21315;SDS011;10817;55.820;13.030;2022-10-03T00:27:29;23.38;;;3.30;;
21315;SDS011;10817;55.820;13.030;2022-10-03T00:30:03;24.48;;;3.53;;
21315;SDS011;10817;55.820;13.030;2022-10-03T00:35:41;27.27;;;4.25;;
21315;SDS011;10817;55.820;13.030;2022-10-03T00:38:29;33.17;;;4.63;;
21315;SDS011;10817;55.820;13.030;2022-10-03T00:44:55;28.63;;;3.58;;
21315;SDS011;10817;55.820;13.030;2022-10-03T00:48:10;22.17;;;3.33;;
21315;SDS011;10817;55.820;13.030;2022-10-03T00:51:06;22.13;;;3.50;;
21315;SDS011;10817;55.820;13.030;2022-10-03T00:56:38;23.02;;;3.70;;
21315;SDS011;10817;55.820;13.030;2022-10-03T00:59:23;26.83;;;3.05;;
21315;SDS011;10817;55.820;13.030;2022-10-03T01:02:18;14.88;;;2.60;;
21315;SDS011;10817;55.820;13.030;2022-10-03T01:04:58;28.48;;;3.63;;
21315;SDS011;10817;55.820;13.030;2022-10-03T01:07:37;29.48;;;3.40;;
21315;SDS011;10817;55.820;13.030;2022-10-03T01:10:25;19.38;;;3.22;;
21315;SDS011;10817;55.820;13.030;2022-10-03T01:13:02;31.33;;;3.60;;
21315;SDS011;10817;55.820;13.030;2022-10-03T01:15:42;29.23;;;3.75;;
21315;SDS011;10817;55.820;13.030;2022-10-03T01:18:18;16.77;;;2.95;;
21315;SDS011;10817;55.820;13.030;2022-10-03T01:20:57;29.40;;;4.15;;
21315;SDS011;10817;55.820;13.030;2022-10-03T01:23:42;31.40;;;5.28;;
21315;SDS011;10817;55.820;13.030;2022-10-03T01:26:32;28.90;;;4.35;;
21315;SDS011;10817;55.820;13.030;2022-10-03T01:29:17;18.27;;;4.00;;
21315;SDS011;10817;55.820;13.030;2022-10-03T01:32:07;22.83;;;3.10;;
21315;SDS011;10817;55.820;13.030;2022-10-03T01:34:43;23.17;;;3.58;;
21315;SDS011;10817;55.820;13.030;2022-10-03T01:37:16;18.23;;;3.03;;
21315;SDS011;10817;55.820;13.030;2022-10-03T01:39:49;20.13;;;3.53;;
21315;SDS011;10817;55.820;13.030;2022-10-03T01:42:28;30.65;;;4.15;;
21315;SDS011;10817;55.820;13.030;2022-10-03T01:45:11;20.33;;;2.70;;
21315;SDS011;10817;55.820;13.030;2022-10-03T01:47:48;24.63;;;4.05;;
21315;SDS011;10817;55.820;13.030;2022-10-03T01:50:21;22.00;;;2.92;;
21315;SDS011;10817;55.820;13.030;2022-10-03T01:52:54;23.10;;;3.22;;
21315;SDS011;10817;55.820;13.030;2022-10-03T01:55:29;16.70;;;3.00;;
21315;SDS011;10817;55.820;13.030;2022-10-03T01:58:04;22.45;;;3.63;;
21315;SDS011;10817;55.820;13.030;2022-10-03T02:00:39;30.83;;;3.85;;
21315;SDS011;10817;55.820;13.030;2022-10-03T02:03:14;36.22;;;4.50;;
21315;SDS011;10817;55.820;13.030;2022-10-03T02:05:47;27.92;;;3.67;;
21315;SDS011;10817;55.820;13.030;2022-10-03T02:08:22;29.67;;;3.60;;
21315;SDS011;10817;55.820;13.030;2022-10-03T02:11:09;26.63;;;3.78;;
21315;SDS011;10817;55.820;13.030;2022-10-03T02:13:48;18.55;;;3.08;;
21315;SDS011;10817;55.820;13.030;2022-10-03T02:16:20;18.35;;;3.10;;
21315;SDS011;10817;55.820;13.030;2022-10-03T02:18:57;21.92;;;4.00;;
21315;SDS011;10817;55.820;13.030;2022-10-03T02:21:30;19.13;;;3.17;;
21315;SDS011;10817;55.820;13.030;2022-10-03T02:24:16;19.15;;;2.85;;
21315;SDS011;10817;55.820;13.030;2022-10-03T02:36:10;31.85;;;3.85;;
21315;SDS011;10817;55.820;13.030;2022-10-03T02:39:11;24.98;;;3.60;;
21315;SDS011;10817;55.820;13.030;2022-10-03T02:41:56;36.63;;;4.15;;
21315;SDS011;10817;55.820;13.030;2022-10-03T02:54:11;27.90;;;3.45;;
21315;SDS011;10817;55.820;13.030;2022-10-03T02:57:07;28.50;;;3.83;;
21315;SDS011;10817;55.820;13.030;2022-10-03T03:05:58;17.15;;;3.17;;
21315;SDS011;10817;55.820;13.030;2022-10-03T03:11:55;22.05;;;3.53;;
21315;SDS011;10817;55.820;13.030;2022-10-03T03:14:50;23.70;;;4.18;;
21315;SDS011;10817;55.820;13.030;2022-10-03T03:17:29;18.85;;;3.35;;
21315;SDS011;10817;55.820;13.030;2022-10-03T03:23:05;21.52;;;3.47;;
21315;SDS011;10817;55.820;13.030;2022-10-03T03:25:47;32.20;;;3.90;;
21315;SDS011;10817;55.820;13.030;2022-10-03T03:28:27;23.17;;;2.88;;
21315;SDS011;10817;55.820;13.030;2022-10-03T03:31:08;21.60;;;3.60;;
21315;SDS011;10817;55.820;13.030;2022-10-03T03:33:39;23.33;;;3.47;;
21315;SDS011;10817;55.820;13.030;2022-10-03T03:36:20;21.83;;;3.55;;
21315;SDS011;10817;55.820;13.030;2022-10-03T03:38:59;28.55;;;3.60;;
21315;SDS011;10817;55.820;13.030;2022-10-03T03:41:41;16.67;;;2.55;;
21315;SDS011;10817;55.820;13.030;2022-10-03T03:44:29;18.17;;;2.95;;
21315;SDS011;10817;55.820;13.030;2022-10-03T03:47:39;22.67;;;3.55;;
21315;SDS011;10817;55.820;13.030;2022-10-03T03:50:20;17.83;;;2.90;;
21315;SDS011;10817;55.820;13.030;2022-10-03T03:53:00;14.50;;;3.22;;
21315;SDS011;10817;55.820;13.030;2022-10-03T03:55:44;21.05;;;3.95;;
21315;SDS011;10817;55.820;13.030;2022-10-03T03:58:29;21.10;;;3.90;;
21315;SDS011;10817;55.820;13.030;2022-10-03T04:01:05;20.98;;;3.35;;
21315;SDS011;10817;55.820;13.030;2022-10-03T04:03:47;19.33;;;3.05;;
21315;SDS011;10817;55.820;13.030;2022-10-03T04:06:34;17.48;;;2.72;;
21315;SDS011;10817;55.820;13.030;2022-10-03T04:09:20;24.55;;;5.10;;
21315;SDS011;10817;55.820;13.030;2022-10-03T04:12:18;21.55;;;3.53;;
21315;SDS011;10817;55.820;13.030;2022-10-03T04:14:59;19.73;;;4.45;;
21315;SDS011;10817;55.820;13.030;2022-10-03T04:17:46;18.27;;;2.70;;
21315;SDS011;10817;55.820;13.030;2022-10-03T04:20:54;11.60;;;2.63;;
21315;SDS011;10817;55.820;13.030;2022-10-03T04:26:20;16.70;;;2.95;;
21315;SDS011;10817;55.820;13.030;2022-10-03T04:29:10;12.68;;;2.88;;
21315;SDS011;10817;55.820;13.030;2022-10-03T04:31:58;14.18;;;2.55;;
21315;SDS011;10817;55.820;13.030;2022-10-03T04:34:41;18.67;;;3.42;;
21315;SDS011;10817;55.820;13.030;2022-10-03T04:37:17;15.38;;;2.83;;
21315;SDS011;10817;55.820;13.030;2022-10-03T04:39:52;22.80;;;3.30;;
21315;SDS011;10817;55.820;13.030;2022-10-03T04:42:35;15.27;;;2.40;;
21315;SDS011;10817;55.820;13.030;2022-10-03T04:45:16;16.52;;;2.65;;
21315;SDS011;10817;55.820;13.030;2022-10-03T04:47:58;15.90;;;2.60;;
21315;SDS011;10817;55.820;13.030;2022-10-03T04:50:33;22.38;;;2.88;;
21315;SDS011;10817;55.820;13.030;2022-10-03T04:53:12;20.17;;;2.83;;
21315;SDS011;10817;55.820;13.030;2022-10-03T04:55:47;10.13;;;2.67;;
21315;SDS011;10817;55.820;13.030;2022-10-03T04:58:23;13.18;;;2.95;;
21315;SDS011;10817;55.820;13.030;2022-10-03T05:00:58;20.77;;;2.75;;
21315;SDS011;10817;55.820;13.030;2022-10-03T05:03:36;16.20;;;3.28;;
21315;SDS011;10817;55.820;13.030;2022-10-03T05:06:19;22.40;;;3.58;;
21315;SDS011;10817;55.820;13.030;2022-10-03T05:09:01;13.45;;;2.40;;
21315;SDS011;10817;55.820;13.030;2022-10-03T05:11:44;18.00;;;2.60;;
21315;SDS011;10817;55.820;13.030;2022-10-03T05:14:23;16.63;;;3.00;;
21315;SDS011;10817;55.820;13.030;2022-10-03T05:16:59;19.45;;;3.47;;
21315;SDS011;10817;55.820;13.030;2022-10-03T05:22:51;13.52;;;2.38;;
21315;SDS011;10817;55.820;13.030;2022-10-03T05:25:27;20.83;;;3.10;;
21315;SDS011;10817;55.820;13.030;2022-10-03T05:28:02;14.00;;;2.58;;
21315;SDS011;10817;55.820;13.030;2022-10-03T05:30:41;11.80;;;2.63;;
21315;SDS011;10817;55.820;13.030;2022-10-03T05:33:14;17.75;;;2.45;;
21315;SDS011;10817;55.820;13.030;2022-10-03T05:35:52;16.88;;;2.95;;
21315;SDS011;10817;55.820;13.030;2022-10-03T05:38:48;18.23;;;2.90;;
21315;SDS011;10817;55.820;13.030;2022-10-03T05:41:28;13.45;;;2.55;;
21315;SDS011;10817;55.820;13.030;2022-10-03T05:44:03;16.40;;;3.15;;
21315;SDS011;10817;55.820;13.030;2022-10-03T05:46:46;23.95;;;2.40;;
21315;SDS011;10817;55.820;13.030;2022-10-03T05:49:26;13.40;;;2.50;;
21315;SDS011;10817;55.820;13.030;2022-10-03T05:52:27;12.48;;;2.35;;
21315;SDS011;10817;55.820;13.030;2022-10-03T05:55:18;14.10;;;2.20;;
21315;SDS011;10817;55.820;13.030;2022-10-03T05:58:03;11.23;;;2.67;;
21315;SDS011;10817;55.820;13.030;2022-10-03T06:01:04;14.23;;;2.15;;
21315;SDS011;10817;55.820;13.030;2022-10-03T06:03:50;9.93;;;2.00;;
21315;SDS011;10817;55.820;13.030;2022-10-03T06:06:29;20.00;;;3.22;;
21315;SDS011;10817;55.820;13.030;2022-10-03T06:12:09;15.65;;;2.63;;
21315;SDS011;10817;55.820;13.030;2022-10-03T06:14:50;16.60;;;2.50;;
21315;SDS011;10817;55.820;13.030;2022-10-03T06:17:56;18.60;;;2.53;;
21315;SDS011;10817;55.820;13.030;2022-10-03T06:20:45;14.25;;;2.30;;
21315;SDS011;10817;55.820;13.030;2022-10-03T06:27:01;21.52;;;2.88;;
21315;SDS011;10817;55.820;13.030;2022-10-03T06:29:54;21.83;;;3.05;;
21315;SDS011;10817;55.820;13.030;2022-10-03T06:32:54;23.63;;;3.22;;
21315;SDS011;10817;55.820;13.030;2022-10-03T06:36:00;19.60;;;2.88;;
21315;SDS011;10817;55.820;13.030;2022-10-03T06:45:19;23.73;;;3.40;;
21315;SDS011;10817;55.820;13.030;2022-10-03T06:48:20;19.30;;;3.30;;
21315;SDS011;10817;55.820;13.030;2022-10-03T06:51:24;21.08;;;3.65;;
21315;SDS011;10817;55.820;13.030;2022-10-03T06:57:23;24.73;;;3.70;;
21315;SDS011;10817;55.820;13.030;2022-10-03T07:00:11;17.65;;;2.50;;
21315;SDS011;10817;55.820;13.030;2022-10-03T07:03:09;19.23;;;2.60;;
21315;SDS011;10817;55.820;13.030;2022-10-03T07:12:05;18.98;;;3.08;;
21315;SDS011;10817;55.820;13.030;2022-10-03T07:14:59;22.83;;;2.63;;
21315;SDS011;10817;55.820;13.030;2022-10-03T07:17:59;22.50;;;3.63;;
21315;SDS011;10817;55.820;13.030;2022-10-03T07:20:56;17.70;;;2.50;;
21315;SDS011;10817;55.820;13.030;2022-10-03T07:23:58;19.60;;;2.60;;
21315;SDS011;10817;55.820;13.030;2022-10-03T07:26:39;14.32;;;2.45;;
21315;SDS011;10817;55.820;13.030;2022-10-03T07:29:22;19.27;;;2.40;;
21315;SDS011;10817;55.820;13.030;2022-10-03T07:35:25;16.50;;;2.25;;
21315;SDS011;10817;55.820;13.030;2022-10-03T07:41:29;15.32;;;2.70;;
21315;SDS011;10817;55.820;13.030;2022-10-03T07:47:37;20.38;;;2.80;;
21315;SDS011;10817;55.820;13.030;2022-10-03T07:50:57;22.80;;;2.75;;
21315;SDS011;10817;55.820;13.030;2022-10-03T07:56:57;13.63;;;2.58;;
21315;SDS011;10817;55.820;13.030;2022-10-03T07:59:53;15.48;;;3.17;;
21315;SDS011;10817;55.820;13.030;2022-10-03T08:02:52;18.92;;;3.13;;
21315;SDS011;10817;55.820;13.030;2022-10-03T08:05:53;14.50;;;2.78;;
21315;SDS011;10817;55.820;13.030;2022-10-03T08:08:45;20.13;;;3.03;;
21315;SDS011;10817;55.820;13.030;2022-10-03T08:11:35;16.30;;;2.83;;
21315;SDS011;10817;55.820;13.030;2022-10-03T08:14:18;18.00;;;3.45;;
21315;SDS011;10817;55.820;13.030;2022-10-03T08:17:05;25.77;;;3.20;;
21315;SDS011;10817;55.820;13.030;2022-10-03T08:20:10;17.27;;;2.88;;
21315;SDS011;10817;55.820;13.030;2022-10-03T08:23:00;19.20;;;3.25;;
21315;SDS011;10817;55.820;13.030;2022-10-03T08:25:45;23.25;;;4.38;;
21315;SDS011;10817;55.820;13.030;2022-10-03T08:28:28;14.75;;;3.33;;
21315;SDS011;10817;55.820;13.030;2022-10-03T08:40:29;20.70;;;2.75;;
21315;SDS011;10817;55.820;13.030;2022-10-03T08:46:38;20.08;;;3.53;;
21315;SDS011;10817;55.820;13.030;2022-10-03T08:49:35;23.00;;;3.90;;
21315;SDS011;10817;55.820;13.030;2022-10-03T08:52:26;21.90;;;2.95;;
21315;SDS011;10817;55.820;13.030;2022-10-03T08:55:11;18.30;;;3.65;;
21315;SDS011;10817;55.820;13.030;2022-10-03T08:58:25;17.63;;;3.25;;
21315;SDS011;10817;55.820;13.030;2022-10-03T09:01:27;18.95;;;3.28;;
21315;SDS011;10817;55.820;13.030;2022-10-03T09:04:09;14.60;;;3.10;;
21315;SDS011;10817;55.820;13.030;2022-10-03T09:07:06;9.43;;;2.20;;
21315;SDS011;10817;55.820;13.030;2022-10-03T09:10:00;14.45;;;2.53;;
21315;SDS011;10817;55.820;13.030;2022-10-03T09:18:55;11.93;;;2.72;;
21315;SDS011;10817;55.820;13.030;2022-10-03T09:27:38;10.43;;;2.00;;
21315;SDS011;10817;55.820;13.030;2022-10-03T09:30:26;14.07;;;2.25;;
21315;SDS011;10817;55.820;13.030;2022-10-03T09:36:33;7.97;;;1.73;;
21315;SDS011;10817;55.820;13.030;2022-10-03T09:42:39;9.52;;;2.83;;
21315;SDS011;10817;55.820;13.030;2022-10-03T09:45:25;9.85;;;1.95;;
21315;SDS011;10817;55.820;13.030;2022-10-03T09:48:15;5.45;;;1.48;;
21315;SDS011;10817;55.820;13.030;2022-10-03T09:59:59;6.75;;;1.67;;
21315;SDS011;10817;55.820;13.030;2022-10-03T10:05:55;13.02;;;2.10;;
21315;SDS011;10817;55.820;13.030;2022-10-03T10:08:38;7.07;;;1.70;;
21315;SDS011;10817;55.820;13.030;2022-10-03T10:11:46;5.45;;;1.67;;
21315;SDS011;10817;55.820;13.030;2022-10-03T10:14:42;10.95;;;2.65;;
21315;SDS011;10817;55.820;13.030;2022-10-03T10:17:47;6.55;;;1.95;;
21315;SDS011;10817;55.820;13.030;2022-10-03T10:21:02;7.43;;;1.85;;
21315;SDS011;10817;55.820;13.030;2022-10-03T10:23:49;10.02;;;1.73;;
21315;SDS011;10817;55.820;13.030;2022-10-03T10:26:41;10.35;;;2.20;;
21315;SDS011;10817;55.820;13.030;2022-10-03T10:29:36;8.88;;;1.80;;
21315;SDS011;10817;55.820;13.030;2022-10-03T10:32:44;7.88;;;2.17;;
21315;SDS011;10817;55.820;13.030;2022-10-03T10:38:45;8.05;;;1.60;;
21315;SDS011;10817;55.820;13.030;2022-10-03T10:42:00;9.65;;;1.70;;
21315;SDS011;10817;55.820;13.030;2022-10-03T10:54:30;6.80;;;1.60;;
21315;SDS011;10817;55.820;13.030;2022-10-03T10:57:20;8.60;;;1.80;;
21315;SDS011;10817;55.820;13.030;2022-10-03T11:06:06;8.55;;;1.88;;
21315;SDS011;10817;55.820;13.030;2022-10-03T11:15:15;7.40;;;1.80;;
21315;SDS011;10817;55.820;13.030;2022-10-03T11:24:36;8.45;;;2.03;;
21315;SDS011;10817;55.820;13.030;2022-10-03T11:33:31;7.25;;;1.83;;
21315;SDS011;10817;55.820;13.030;2022-10-03T11:36:31;11.57;;;2.17;;
21315;SDS011;10817;55.820;13.030;2022-10-03T11:39:25;7.50;;;1.98;;
21315;SDS011;10817;55.820;13.030;2022-10-03T11:42:03;8.23;;;2.20;;
21315;SDS011;10817;55.820;13.030;2022-10-03T11:44:36;8.75;;;2.10;;
21315;SDS011;10817;55.820;13.030;2022-10-03T11:47:18;6.82;;;1.77;;
21315;SDS011;10817;55.820;13.030;2022-10-03T11:53:11;7.47;;;1.65;;
21315;SDS011;10817;55.820;13.030;2022-10-03T11:55:45;9.02;;;2.00;;
21315;SDS011;10817;55.820;13.030;2022-10-03T11:58:26;12.65;;;1.90;;
21315;SDS011;10817;55.820;13.030;2022-10-03T12:01:02;9.50;;;1.98;;
21315;SDS011;10817;55.820;13.030;2022-10-03T12:03:57;12.85;;;2.97;;
21315;SDS011;10817;55.820;13.030;2022-10-03T12:06:38;8.40;;;2.10;;
21315;SDS011;10817;55.820;13.030;2022-10-03T12:09:42;11.20;;;1.95;;
21315;SDS011;10817;55.820;13.030;2022-10-03T12:12:21;8.77;;;2.00;;
21315;SDS011;10817;55.820;13.030;2022-10-03T12:14:57;11.00;;;2.40;;
21315;SDS011;10817;55.820;13.030;2022-10-03T12:17:31;8.50;;;2.22;;
21315;SDS011;10817;55.820;13.030;2022-10-03T12:20:03;8.48;;;2.70;;
21315;SDS011;10817;55.820;13.030;2022-10-03T12:22:42;9.88;;;2.03;;
21315;SDS011;10817;55.820;13.030;2022-10-03T12:25:17;8.98;;;2.08;;
21315;SDS011;10817;55.820;13.030;2022-10-03T12:27:49;6.80;;;2.05;;
21315;SDS011;10817;55.820;13.030;2022-10-03T12:30:32;8.90;;;1.83;;
21315;SDS011;10817;55.820;13.030;2022-10-03T12:33:13;8.88;;;2.30;;
21315;SDS011;10817;55.820;13.030;2022-10-03T12:35:54;11.68;;;2.25;;
21315;SDS011;10817;55.820;13.030;2022-10-03T12:38:30;8.75;;;2.05;;
21315;SDS011;10817;55.820;13.030;2022-10-03T12:41:12;8.60;;;1.98;;
21315;SDS011;10817;55.820;13.030;2022-10-03T12:43:55;10.10;;;2.35;;
21315;SDS011;10817;55.820;13.030;2022-10-03T12:46:38;10.40;;;1.92;;
21315;SDS011;10817;55.820;13.030;2022-10-03T12:49:15;8.00;;;1.88;;
21315;SDS011;10817;55.820;13.030;2022-10-03T12:51:48;9.13;;;1.88;;
21315;SDS011;10817;55.820;13.030;2022-10-03T12:54:26;10.48;;;2.00;;
21315;SDS011;10817;55.820;13.030;2022-10-03T12:57:09;11.60;;;2.28;;
21315;SDS011;10817;55.820;13.030;2022-10-03T13:00:01;10.43;;;2.42;;
21315;SDS011;10817;55.820;13.030;2022-10-03T13:02:33;8.95;;;1.92;;
21315;SDS011;10817;55.820;13.030;2022-10-03T13:05:25;7.57;;;2.05;;
21315;SDS011;10817;55.820;13.030;2022-10-03T13:08:00;8.23;;;1.70;;
21315;SDS011;10817;55.820;13.030;2022-10-03T13:10:37;8.55;;;1.73;;
21315;SDS011;10817;55.820;13.030;2022-10-03T13:13:20;8.10;;;2.00;;
21315;SDS011;10817;55.820;13.030;2022-10-03T13:15:58;7.97;;;1.95;;
21315;SDS011;10817;55.820;13.030;2022-10-03T13:18:43;9.23;;;2.10;;
21315;SDS011;10817;55.820;13.030;2022-10-03T13:21:16;9.55;;;1.80;;
21315;SDS011;10817;55.820;13.030;2022-10-03T13:23:46;6.10;;;1.80;;
21315;SDS011;10817;55.820;13.030;2022-10-03T13:26:19;6.78;;;1.70;;
21315;SDS011;10817;55.820;13.030;2022-10-03T13:28:55;5.15;;;1.48;;
21315;SDS011;10817;55.820;13.030;2022-10-03T13:31:43;7.38;;;1.70;;
21315;SDS011;10817;55.820;13.030;2022-10-03T13:34:22;8.48;;;2.08;;
21315;SDS011;10817;55.820;13.030;2022-10-03T13:36:54;5.85;;;2.00;;
21315;SDS011;10817;55.820;13.030;2022-10-03T13:39:32;8.27;;;1.50;;
21315;SDS011;10817;55.820;13.030;2022-10-03T13:42:11;9.88;;;1.85;;
21315;SDS011;10817;55.820;13.030;2022-10-03T13:44:44;8.52;;;1.75;;
21315;SDS011;10817;55.820;13.030;2022-10-03T13:47:40;8.40;;;1.80;;
21315;SDS011;10817;55.820;13.030;2022-10-03T13:50:15;7.40;;;2.00;;
21315;SDS011;10817;55.820;13.030;2022-10-03T13:52:47;6.53;;;1.73;;
21315;SDS011;10817;55.820;13.030;2022-10-03T13:55:29;7.40;;;1.27;;
21315;SDS011;10817;55.820;13.030;2022-10-03T14:04:03;9.45;;;1.65;;
21315;SDS011;10817;55.820;13.030;2022-10-03T14:06:58;7.45;;;2.22;;
21315;SDS011;10817;55.820;13.030;2022-10-03T14:09:37;14.43;;;1.92;;
21315;SDS011;10817;55.820;13.030;2022-10-03T14:12:24;10.02;;;1.88;;
21315;SDS011;10817;55.820;13.030;2022-10-03T14:15:03;7.78;;;1.83;;
21315;SDS011;10817;55.820;13.030;2022-10-03T14:17:44;8.82;;;1.50;;
21315;SDS011;10817;55.820;13.030;2022-10-03T14:20:19;7.63;;;1.80;;
21315;SDS011;10817;55.820;13.030;2022-10-03T14:22:55;6.97;;;1.70;;
21315;SDS011;10817;55.820;13.030;2022-10-03T14:25:44;10.38;;;1.90;;
21315;SDS011;10817;55.820;13.030;2022-10-03T14:28:18;7.35;;;1.75;;
21315;SDS011;10817;55.820;13.030;2022-10-03T14:30:56;7.13;;;1.92;;
21315;SDS011;10817;55.820;13.030;2022-10-03T14:33:31;6.35;;;1.70;;
21315;SDS011;10817;55.820;13.030;2022-10-03T14:36:13;9.82;;;1.73;;
21315;SDS011;10817;55.820;13.030;2022-10-03T14:38:53;7.55;;;1.52;;
21315;SDS011;10817;55.820;13.030;2022-10-03T14:44:40;8.45;;;1.90;;
21315;SDS011;10817;55.820;13.030;2022-10-03T14:47:11;6.75;;;1.80;;
21315;SDS011;10817;55.820;13.030;2022-10-03T14:49:47;8.35;;;1.70;;
21315;SDS011;10817;55.820;13.030;2022-10-03T14:52:21;5.78;;;1.50;;
21315;SDS011;10817;55.820;13.030;2022-10-03T14:54:55;12.60;;;2.20;;
21315;SDS011;10817;55.820;13.030;2022-10-03T14:57:29;12.18;;;2.33;;
21315;SDS011;10817;55.820;13.030;2022-10-03T14:59:59;9.35;;;1.63;;
21315;SDS011;10817;55.820;13.030;2022-10-03T15:02:28;9.80;;;2.40;;
21315;SDS011;10817;55.820;13.030;2022-10-03T15:05:00;9.75;;;2.05;;
21315;SDS011;10817;55.820;13.030;2022-10-03T15:07:33;10.95;;;2.17;;
21315;SDS011;10817;55.820;13.030;2022-10-03T15:10:07;10.77;;;2.25;;
21315;SDS011;10817;55.820;13.030;2022-10-03T15:12:37;11.70;;;2.58;;
21315;SDS011;10817;55.820;13.030;2022-10-03T15:15:09;16.75;;;2.33;;
21315;SDS011;10817;55.820;13.030;2022-10-03T15:17:43;12.70;;;2.55;;
21315;SDS011;10817;55.820;13.030;2022-10-03T15:20:12;14.75;;;2.03;;
21315;SDS011;10817;55.820;13.030;2022-10-03T15:22:46;11.15;;;2.28;;
21315;SDS011;10817;55.820;13.030;2022-10-03T15:25:19;7.40;;;1.48;;
21315;SDS011;10817;55.820;13.030;2022-10-03T15:27:49;9.27;;;2.22;;
21315;SDS011;10817;55.820;13.030;2022-10-03T15:30:19;11.45;;;1.95;;
21315;SDS011;10817;55.820;13.030;2022-10-03T15:32:48;11.75;;;1.63;;
21315;SDS011;10817;55.820;13.030;2022-10-03T15:35:21;9.50;;;2.00;;
21315;SDS011;10817;55.820;13.030;2022-10-03T15:37:51;9.38;;;2.22;;
21315;SDS011;10817;55.820;13.030;2022-10-03T15:40:22;9.43;;;1.95;;
21315;SDS011;10817;55.820;13.030;2022-10-03T15:43:00;8.88;;;2.28;;
21315;SDS011;10817;55.820;13.030;2022-10-03T15:45:31;11.20;;;1.90;;
21315;SDS011;10817;55.820;13.030;2022-10-03T15:48:01;12.73;;;2.55;;
21315;SDS011;10817;55.820;13.030;2022-10-03T15:50:32;8.90;;;1.65;;
21315;SDS011;10817;55.820;13.030;2022-10-03T15:53:05;11.98;;;1.83;;
21315;SDS011;10817;55.820;13.030;2022-10-03T15:55:38;16.40;;;2.35;;
21315;SDS011;10817;55.820;13.030;2022-10-03T15:58:10;12.13;;;2.28;;
21315;SDS011;10817;55.820;13.030;2022-10-03T16:00:42;10.55;;;1.88;;
21315;SDS011;10817;55.820;13.030;2022-10-03T16:03:12;12.85;;;2.45;;
21315;SDS011;10817;55.820;13.030;2022-10-03T16:05:42;10.40;;;2.13;;
21315;SDS011;10817;55.820;13.030;2022-10-03T16:08:22;19.00;;;2.30;;
21315;SDS011;10817;55.820;13.030;2022-10-03T16:10:58;12.93;;;1.98;;
21315;SDS011;10817;55.820;13.030;2022-10-03T16:13:33;9.00;;;2.17;;
21315;SDS011;10817;55.820;13.030;2022-10-03T16:16:08;12.38;;;2.28;;
21315;SDS011;10817;55.820;13.030;2022-10-03T16:18:50;14.25;;;2.60;;
21315;SDS011;10817;55.820;13.030;2022-10-03T16:21:37;15.80;;;3.33;;
21315;SDS011;10817;55.820;13.030;2022-10-03T16:24:18;8.68;;;2.22;;
21315;SDS011;10817;55.820;13.030;2022-10-03T16:26:55;12.43;;;2.53;;
21315;SDS011;10817;55.820;13.030;2022-10-03T16:29:30;17.92;;;2.78;;
21315;SDS011;10817;55.820;13.030;2022-10-03T16:32:02;14.43;;;2.90;;
21315;SDS011;10817;55.820;13.030;2022-10-03T16:34:32;21.33;;;2.55;;
21315;SDS011;10817;55.820;13.030;2022-10-03T16:37:01;11.15;;;2.25;;
21315;SDS011;10817;55.820;13.030;2022-10-03T16:39:41;12.55;;;2.03;;
21315;SDS011;10817;55.820;13.030;2022-10-03T16:42:12;13.15;;;3.58;;
21315;SDS011;10817;55.820;13.030;2022-10-03T16:44:47;14.15;;;2.13;;
21315;SDS011;10817;55.820;13.030;2022-10-03T16:47:25;17.17;;;2.50;;
21315;SDS011;10817;55.820;13.030;2022-10-03T16:50:00;14.50;;;2.38;;
21315;SDS011;10817;55.820;13.030;2022-10-03T16:52:46;13.98;;;2.13;;
21315;SDS011;10817;55.820;13.030;2022-10-03T16:55:16;11.90;;;2.30;;
21315;SDS011;10817;55.820;13.030;2022-10-03T16:57:50;13.18;;;2.10;;
21315;SDS011;10817;55.820;13.030;2022-10-03T17:00:22;13.25;;;3.25;;
21315;SDS011;10817;55.820;13.030;2022-10-03T17:02:54;18.15;;;2.85;;
21315;SDS011;10817;55.820;13.030;2022-10-03T17:05:22;7.35;;;2.00;;
21315;SDS011;10817;55.820;13.030;2022-10-03T17:07:50;15.07;;;2.33;;
21315;SDS011;10817;55.820;13.030;2022-10-03T17:10:32;14.35;;;2.35;;
21315;SDS011;10817;55.820;13.030;2022-10-03T17:13:04;12.02;;;2.38;;
21315;SDS011;10817;55.820;13.030;2022-10-03T17:15:40;15.70;;;2.55;;
21315;SDS011;10817;55.820;13.030;2022-10-03T17:18:15;11.93;;;1.90;;
21315;SDS011;10817;55.820;13.030;2022-10-03T17:20:47;11.20;;;2.70;;
21315;SDS011;10817;55.820;13.030;2022-10-03T17:23:25;9.40;;;2.40;;
21315;SDS011;10817;55.820;13.030;2022-10-03T17:25:57;13.65;;;2.70;;
21315;SDS011;10817;55.820;13.030;2022-10-03T17:28:35;11.65;;;2.20;;
21315;SDS011;10817;55.820;13.030;2022-10-03T17:31:11;9.65;;;2.20;;
21315;SDS011;10817;55.820;13.030;2022-10-03T17:33:49;17.88;;;2.83;;
21315;SDS011;10817;55.820;13.030;2022-10-03T17:36:41;17.83;;;2.50;;
21315;SDS011;10817;55.820;13.030;2022-10-03T17:42:27;10.85;;;2.83;;
21315;SDS011;10817;55.820;13.030;2022-10-03T17:45:08;13.02;;;2.80;;
21315;SDS011;10817;55.820;13.030;2022-10-03T17:47:47;12.73;;;2.10;;
21315;SDS011;10817;55.820;13.030;2022-10-03T17:50:21;17.52;;;3.05;;
21315;SDS011;10817;55.820;13.030;2022-10-03T17:52:56;9.98;;;2.13;;
21315;SDS011;10817;55.820;13.030;2022-10-03T17:55:26;10.93;;;1.83;;
21315;SDS011;10817;55.820;13.030;2022-10-03T17:57:57;10.75;;;2.40;;
21315;SDS011;10817;55.820;13.030;2022-10-03T18:00:32;10.15;;;2.28;;
21315;SDS011;10817;55.820;13.030;2022-10-03T18:03:20;12.38;;;2.03;;
21315;SDS011;10817;55.820;13.030;2022-10-03T18:05:52;12.10;;;2.35;;
21315;SDS011;10817;55.820;13.030;2022-10-03T18:08:25;11.52;;;2.25;;
21315;SDS011;10817;55.820;13.030;2022-10-03T18:10:55;13.60;;;2.47;;
21315;SDS011;10817;55.820;13.030;2022-10-03T18:13:27;13.77;;;2.08;;
21315;SDS011;10817;55.820;13.030;2022-10-03T18:16:11;11.38;;;2.30;;
21315;SDS011;10817;55.820;13.030;2022-10-03T18:21:53;12.32;;;2.42;;
21315;SDS011;10817;55.820;13.030;2022-10-03T18:24:39;12.27;;;2.35;;
21315;SDS011;10817;55.820;13.030;2022-10-03T18:30:18;11.38;;;2.08;;
21315;SDS011;10817;55.820;13.030;2022-10-03T18:32:48;11.93;;;1.73;;
21315;SDS011;10817;55.820;13.030;2022-10-03T18:35:19;8.73;;;2.42;;
21315;SDS011;10817;55.820;13.030;2022-10-03T18:37:52;9.43;;;1.77;;
21315;SDS011;10817;55.820;13.030;2022-10-03T18:40:32;11.82;;;2.65;;
21315;SDS011;10817;55.820;13.030;2022-10-03T18:43:03;15.23;;;2.70;;
21315;SDS011;10817;55.820;13.030;2022-10-03T18:45:32;11.00;;;2.55;;
21315;SDS011;10817;55.820;13.030;2022-10-03T18:48:06;8.10;;;2.10;;
21315;SDS011;10817;55.820;13.030;2022-10-03T18:50:42;10.07;;;2.00;;
21315;SDS011;10817;55.820;13.030;2022-10-03T18:53:18;7.30;;;2.05;;
21315;SDS011;10817;55.820;13.030;2022-10-03T18:55:55;13.05;;;2.33;;
21315;SDS011;10817;55.820;13.030;2022-10-03T18:58:27;8.30;;;2.03;;